Time;durP1;ratioP1;P1;durP2;ratioP2;P2;SDS_P1;SDS_P2;PMS_P1;PMS_P2;Temp;Humidity;BMP_temperature;BMP_pressure;BME280_temperature;BME280_humidity;BME280_pressure;Samples;Min_cycle;Max_cycle;Signal;HPM_P1;HPM_P2
2023/05/11 00:01:51;;;;;;;15.90;15.40;;;22.00;92.20;;;;;;5076481;28;20471;-67
2023/05/11 00:04:17;;;;;;;16.30;15.70;;;22.00;92.20;;;;;;5075415;28;20501;-66
2023/05/11 00:06:44;;;;;;;18.20;17.30;;;22.00;92.20;;;;;;5075841;28;20511;-66
2023/05/11 00:09:11;;;;;;;16.60;16.00;;;22.00;92.20;;;;;;5076195;28;20458;-66
2023/05/11 00:11:38;;;;;;;17.40;16.70;;;22.00;92.20;;;;;;5075590;28;20475;-65
2023/05/11 00:14:05;;;;;;;17.67;17.07;;;22.10;92.50;;;;;;5075315;28;20491;-64
2023/05/11 00:16:32;;;;;;;17.77;17.13;;;22.00;92.70;;;;;;5075682;28;20475;-65
2023/05/11 00:19:00;;;;;;;18.27;17.47;;;22.00;93.00;;;;;;5075706;28;20469;-64
2023/05/11 00:21:27;;;;;;;17.93;17.23;;;22.00;93.20;;;;;;5075099;28;20467;-65
2023/05/11 00:23:54;;;;;;;17.40;16.70;;;21.90;93.30;;;;;;5075541;28;20491;-65
2023/05/11 00:26:21;;;;;;;17.67;16.97;;;22.00;93.40;;;;;;5075573;28;21025;-65
2023/05/11 00:28:48;;;;;;;16.73;16.13;;;21.90;93.60;;;;;;5076170;28;20475;-65
2023/05/11 00:31:15;;;;;;;16.77;16.17;;;21.90;93.50;;;;;;5075751;28;20478;-65
2023/05/11 00:33:42;;;;;;;17.07;16.47;;;21.90;93.60;;;;;;5074413;28;20495;-65
2023/05/11 00:36:10;;;;;;;16.70;16.10;;;21.90;93.70;;;;;;5074947;28;21327;-65
2023/05/11 00:38:39;;;;;;;17.10;16.60;;;21.90;93.80;;;;;;5075659;28;20439;-65
2023/05/11 00:41:06;;;;;;;17.40;16.80;;;21.90;94.20;;;;;;5075099;28;20451;-65
2023/05/11 00:43:33;;;;;;;17.53;16.83;;;21.80;93.70;;;;;;5075069;28;20523;-65
2023/05/11 00:46:01;;;;;;;17.60;17.00;;;21.80;93.80;;;;;;5074893;28;21085;-65
2023/05/11 00:48:27;;;;;;;17.10;16.40;;;21.80;93.90;;;;;;5074969;28;20435;-65
2023/05/11 00:50:55;;;;;;;18.07;17.37;;;21.80;93.90;;;;;;5075303;28;20478;-65
2023/05/11 00:53:24;;;;;;;18.03;17.33;;;21.80;93.70;;;;;;5074648;28;20479;-65
2023/05/11 00:55:51;;;;;;;17.43;16.73;;;21.80;93.70;;;;;;5075068;28;20481;-65
2023/05/11 00:58:18;;;;;;;16.50;16.00;;;21.80;93.60;;;;;;5074617;28;20976;-65
2023/05/11 01:00:46;;;;;;;20.20;19.20;;;21.80;94.10;;;;;;5074975;28;20970;-65
2023/05/11 01:03:14;;;;;;;18.50;17.77;;;21.80;93.80;;;;;;5074614;28;20489;-65
2023/05/11 01:05:48;;;;;;;18.07;17.47;;;21.80;93.90;;;;;;5075517;28;20809;-65
2023/05/11 01:08:22;;;;;;;17.90;17.30;;;21.80;94.00;;;;;;5075276;28;20479;-65
2023/05/11 01:10:58;;;;;;;17.53;16.93;;;21.80;94.00;;;;;;5074883;28;20474;-65
2023/05/11 01:13:31;;;;;;;18.17;17.33;;;21.80;94.10;;;;;;5074619;28;20500;-66
2023/05/11 01:16:05;;;;;;;18.43;17.67;;;21.70;93.90;;;;;;5074118;28;20977;-65
2023/05/11 01:18:38;;;;;;;17.93;17.27;;;21.70;93.70;;;;;;5074819;28;20481;-67
2023/05/11 01:21:07;;;;;;;19.13;18.37;;;21.70;93.80;;;;;;5074708;28;20447;-65
2023/05/11 01:24:00;;;;;;;18.00;17.40;;;21.70;93.90;;;;;;5073809;28;20854;-65
2023/05/11 01:26:52;;;;;;;18.10;17.50;;;21.70;93.90;;;;;;5068236;28;21054;-65
2023/05/11 01:30:07;;;;;;;18.50;17.77;;;21.70;94.00;;;;;;5074254;28;20981;-65
2023/05/11 01:32:39;;;;;;;18.43;17.73;;;21.70;94.00;;;;;;5074048;28;20482;-65
2023/05/11 01:35:10;;;;;;;18.30;17.60;;;21.70;94.00;;;;;;5073837;28;20880;-65
2023/05/11 01:37:41;;;;;;;18.07;17.17;;;21.70;94.30;;;;;;5074694;28;20467;-65
2023/05/11 01:40:13;;;;;;;17.23;16.63;;;21.70;94.30;;;;;;5073844;28;20518;-65
2023/05/11 01:42:44;;;;;;;18.00;17.30;;;21.70;94.20;;;;;;5074419;28;20762;-65
2023/05/11 01:45:12;;;;;;;18.60;17.90;;;21.60;94.20;;;;;;5073690;28;20505;-65
2023/05/11 01:47:43;;;;;;;18.23;17.53;;;21.60;93.90;;;;;;5073684;28;21013;-65
2023/05/11 01:50:11;;;;;;;17.53;16.93;;;21.60;93.80;;;;;;5073580;28;20478;-65
2023/05/11 01:52:39;;;;;;;17.43;16.83;;;21.60;93.90;;;;;;5074923;28;20489;-65
2023/05/11 01:55:09;;;;;;;17.73;17.10;;;21.60;94.10;;;;;;5074510;28;20463;-65
2023/05/11 01:57:38;;;;;;;17.50;16.83;;;21.60;94.40;;;;;;5074160;28;20474;-65
2023/05/11 02:00:07;;;;;;;18.10;17.47;;;21.60;94.50;;;;;;5073901;28;20479;-65
2023/05/11 02:02:35;;;;;;;17.60;17.00;;;21.60;94.30;;;;;;5073827;28;20539;-65
2023/05/11 02:05:05;;;;;;;18.10;17.43;;;21.60;94.10;;;;;;5073425;28;20498;-65
2023/05/11 02:07:32;;;;;;;18.20;17.43;;;21.60;94.20;;;;;;5073661;28;20479;-65
2023/05/11 02:10:00;;;;;;;17.70;17.00;;;21.60;94.30;;;;;;5073674;28;20848;-65
2023/05/11 02:12:28;;;;;;;18.10;17.40;;;21.60;94.20;;;;;;5073018;28;20479;-65
2023/05/11 02:14:57;;;;;;;17.93;17.33;;;21.60;94.30;;;;;;5073008;28;20502;-65
2023/05/11 02:17:25;;;;;;;18.90;18.20;;;21.60;94.30;;;;;;5073508;28;20475;-65
2023/05/11 02:19:53;;;;;;;18.30;17.60;;;21.60;94.40;;;;;;5073299;28;20439;-65
2023/05/11 02:22:24;;;;;;;18.33;17.63;;;21.60;94.30;;;;;;5073114;28;20443;-66
2023/05/11 02:24:51;;;;;;;17.97;17.20;;;21.50;94.40;;;;;;5073127;28;20467;-65
2023/05/11 02:27:18;;;;;;;17.50;16.87;;;21.50;94.60;;;;;;5073629;28;20994;-65
2023/05/11 02:29:45;;;;;;;18.23;17.63;;;21.50;94.70;;;;;;5073430;28;20482;-65
2023/05/11 02:32:16;;;;;;;18.07;17.47;;;21.60;94.70;;;;;;5073152;28;20520;-65
2023/05/11 02:34:47;;;;;;;17.93;17.33;;;21.50;94.40;;;;;;5073019;28;20499;-65
2023/05/11 02:37:18;;;;;;;18.90;18.20;;;21.50;94.40;;;;;;5072992;28;20471;-65
2023/05/11 02:39:52;;;;;;;18.00;17.30;;;21.50;94.20;;;;;;5074045;28;20970;-65
2023/05/11 02:42:22;;;;;;;18.03;17.33;;;21.50;94.00;;;;;;5072675;28;20482;-65
2023/05/11 02:44:55;;;;;;;17.63;16.93;;;21.50;94.10;;;;;;5072225;28;20498;-65
2023/05/11 02:47:27;;;;;;;18.30;17.60;;;21.50;94.00;;;;;;5072633;28;20915;-66
2023/05/11 02:49:57;;;;;;;20.00;19.20;;;21.50;93.90;;;;;;5073251;28;20493;-65
2023/05/11 02:52:27;;;;;;;19.20;18.40;;;21.50;93.80;;;;;;5072970;28;20494;-65
2023/05/11 02:54:56;;;;;;;18.37;17.67;;;21.50;93.80;;;;;;5073428;28;20459;-65
2023/05/11 02:57:24;;;;;;;18.53;17.73;;;21.50;93.70;;;;;;5072621;28;20462;-66
2023/05/11 02:59:52;;;;;;;18.80;18.10;;;21.50;94.00;;;;;;5072996;28;20507;-65
2023/05/11 03:02:19;;;;;;;18.30;17.53;;;21.50;94.10;;;;;;5072870;28;20962;-66
2023/05/11 03:04:45;;;;;;;18.73;18.03;;;21.50;94.10;;;;;;5073113;28;20494;-65
2023/05/11 03:07:13;;;;;;;19.73;18.93;;;21.50;94.20;;;;;;5072570;28;20784;-65
2023/05/11 03:09:40;;;;;;;18.83;18.10;;;21.50;94.20;;;;;;5073072;28;20447;-65
2023/05/11 03:12:09;;;;;;;18.00;17.40;;;21.50;94.20;;;;;;5073237;28;20439;-65
2023/05/11 03:14:37;;;;;;;18.87;18.07;;;21.50;94.20;;;;;;5072379;28;20506;-66
2023/05/11 03:17:06;;;;;;;18.90;18.20;;;21.50;94.20;;;;;;5072658;28;20440;-66
2023/05/11 03:19:33;;;;;;;19.37;18.47;;;21.50;94.30;;;;;;5072937;28;20478;-65
2023/05/11 03:22:01;;;;;;;17.97;17.27;;;21.50;94.30;;;;;;5072949;28;20942;-66
2023/05/11 03:24:28;;;;;;;18.83;18.03;;;21.50;94.40;;;;;;5073580;28;20588;-66
2023/05/11 03:26:56;;;;;;;18.20;17.60;;;21.40;94.20;;;;;;5076474;28;20536;-65
2023/05/11 03:29:26;;;;;;;18.33;17.63;;;21.40;94.20;;;;;;5076621;28;20485;-65
2023/05/11 03:31:54;;;;;;;18.87;18.10;;;21.40;94.30;;;;;;5077812;28;20439;-65
2023/05/11 03:34:21;;;;;;;18.60;18.00;;;21.40;94.40;;;;;;5077039;28;21024;-66
2023/05/11 03:36:50;;;;;;;19.43;18.63;;;21.40;94.20;;;;;;5077579;28;20463;-65
2023/05/11 03:39:18;;;;;;;18.20;17.50;;;21.40;94.20;;;;;;5077243;28;20478;-65
2023/05/11 03:41:48;;;;;;;17.97;17.37;;;21.40;94.10;;;;;;5077206;28;20481;-65
2023/05/11 03:44:19;;;;;;;17.73;17.13;;;21.40;94.20;;;;;;5077025;28;20529;-65
2023/05/11 03:46:49;;;;;;;17.77;17.17;;;21.40;94.10;;;;;;5076478;28;20600;-65
2023/05/11 03:49:16;;;;;;;19.30;18.50;;;21.40;94.20;;;;;;5077283;28;20446;-65
2023/05/11 03:51:44;;;;;;;17.70;17.00;;;21.40;94.20;;;;;;5076788;28;20447;-65
2023/05/11 03:54:12;;;;;;;18.13;17.33;;;21.40;94.20;;;;;;5076027;28;20898;-65
2023/05/11 03:56:39;;;;;;;18.70;18.00;;;21.40;94.30;;;;;;5075666;28;20447;-65
2023/05/11 03:59:07;;;;;;;18.03;17.33;;;21.40;94.40;;;;;;5075964;28;20470;-65
2023/05/11 04:01:34;;;;;;;19.03;18.33;;;21.40;94.40;;;;;;5076197;28;20581;-65
2023/05/11 04:04:03;;;;;;;18.83;18.13;;;21.40;94.50;;;;;;5076227;28;20499;-66
2023/05/11 04:06:30;;;;;;;18.87;18.17;;;21.40;94.30;;;;;;5075383;28;20607;-65
2023/05/11 04:08:57;;;;;;;19.47;18.77;;;21.40;94.30;;;;;;5076296;28;20825;-65
2023/05/11 04:11:24;;;;;;;19.33;18.63;;;21.40;94.40;;;;;;5075805;28;20471;-65
2023/05/11 04:13:50;;;;;;;18.87;18.17;;;21.30;94.30;;;;;;5075909;28;20490;-65
2023/05/11 04:16:17;;;;;;;19.67;18.97;;;21.40;94.20;;;;;;5075583;28;20483;-65
2023/05/11 04:18:44;;;;;;;18.70;18.00;;;21.30;94.20;;;;;;5076158;28;20477;-65
2023/05/11 04:21:13;;;;;;;19.50;18.80;;;21.30;94.20;;;;;;5075587;28;20450;-64
2023/05/11 04:23:39;;;;;;;19.90;19.00;;;21.40;94.60;;;;;;5075340;28;20491;-64
2023/05/11 04:26:06;;;;;;;19.20;18.40;;;21.40;94.30;;;;;;5075212;28;20970;-64
2023/05/11 04:28:33;;;;;;;18.83;18.07;;;21.40;94.50;;;;;;5075312;28;20989;-64
2023/05/11 04:31:00;;;;;;;20.57;19.47;;;21.40;93.80;;;;;;5075700;28;20474;-64
2023/05/11 04:33:27;;;;;;;23.57;22.57;;;21.40;93.70;;;;;;5075212;28;20491;-70
2023/05/11 04:35:55;;;;;;;23.13;22.13;;;21.50;96.60;;;;;;5075457;28;20582;-69
2023/05/11 04:38:23;;;;;;;22.83;21.83;;;21.60;97.40;;;;;;5076563;28;20483;-69
2023/05/11 04:40:50;;;;;;;23.53;22.07;;;21.60;96.50;;;;;;5076636;28;21009;-71
2023/05/11 04:43:17;;;;;;;23.37;22.27;;;21.70;95.90;;;;;;5075380;28;20525;-70
2023/05/11 04:45:48;;;;;;;23.67;22.60;;;21.80;96.00;;;;;;5075490;28;20479;-68
2023/05/11 04:48:15;;;;;;;24.57;23.57;;;21.80;95.20;;;;;;5075893;28;20443;-69
2023/05/11 04:50:42;;;;;;;25.77;24.57;;;21.80;95.10;;;;;;5075434;28;20454;-68
2023/05/11 04:53:09;;;;;;;25.57;24.50;;;21.90;94.80;;;;;;5075518;28;20451;-69
2023/05/11 04:55:37;;;;;;;24.50;23.37;;;21.90;94.50;;;;;;5074224;28;20507;-67
2023/05/11 04:58:04;;;;;;;26.07;24.87;;;22.00;94.80;;;;;;5074474;28;20479;-66
2023/05/11 05:00:31;;;;;;;26.47;25.37;;;22.00;94.50;;;;;;5074207;28;20479;-65
2023/05/11 05:02:58;;;;;;;25.43;24.17;;;22.00;94.40;;;;;;5074152;28;20853;-65
2023/05/11 05:05:25;;;;;;;25.83;24.50;;;22.00;94.30;;;;;;5074087;28;20454;-64
2023/05/11 05:07:52;;;;;;;23.67;22.57;;;22.00;95.20;;;;;;5128699;22;20511;-70
2023/05/11 05:10:19;;;;;;;25.47;24.27;;;22.10;94.70;;;;;;5052961;28;20472;-70
2023/05/11 05:12:47;;;;;;;24.30;23.30;;;22.10;94.10;;;;;;5052500;28;20448;-69
2023/05/11 05:15:15;;;;;;;25.87;24.67;;;22.20;93.60;;;;;;5046149;28;20481;-72
2023/05/11 05:17:42;;;;;;;24.53;23.53;;;22.20;93.20;;;;;;5033807;28;20492;-68
2023/05/11 05:20:09;;;;;;;24.33;23.23;;;22.30;93.20;;;;;;5034135;28;20476;-69
2023/05/11 05:22:36;;;;;;;24.13;23.20;;;22.40;93.20;;;;;;5033759;28;20449;-69
2023/05/11 05:25:03;;;;;;;22.90;22.00;;;22.40;92.90;;;;;;5034300;28;20936;-68
2023/05/11 05:27:31;;;;;;;25.33;24.10;;;22.40;93.00;;;;;;5034069;28;20492;-70
2023/05/11 05:30:00;;;;;;;24.90;23.80;;;22.40;92.70;;;;;;5034221;28;20451;-68
2023/05/11 05:32:27;;;;;;;25.83;24.63;;;22.40;92.70;;;;;;5033838;28;20536;-68
2023/05/11 05:34:54;;;;;;;23.97;22.87;;;22.40;92.50;;;;;;5034320;28;20529;-68
2023/05/11 05:37:20;;;;;;;25.30;23.73;;;22.40;92.20;;;;;;5033566;28;20519;-67
2023/05/11 05:39:47;;;;;;;25.40;24.27;;;22.50;92.00;;;;;;5033664;28;20480;-67
2023/05/11 05:42:14;;;;;;;25.23;23.77;;;22.50;92.00;;;;;;5034293;28;20484;-68
2023/05/11 05:44:41;;;;;;;23.00;21.90;;;22.50;91.70;;;;;;5048234;28;20453;-66
2023/05/11 05:47:09;;;;;;;23.97;23.07;;;22.50;92.30;;;;;;5053204;28;20528;-65
2023/05/11 05:49:37;;;;;;;25.53;24.47;;;22.60;92.50;;;;;;5054500;28;20444;-66
2023/05/11 05:52:04;;;;;;;24.70;23.70;;;22.60;92.70;;;;;;5053992;28;20491;-66
2023/05/11 05:54:31;;;;;;;23.10;22.20;;;22.60;93.10;;;;;;5049499;28;20497;-68
2023/05/11 05:56:58;;;;;;;23.63;22.40;;;22.70;93.10;;;;;;5047987;28;20445;-66
2023/05/11 05:59:25;;;;;;;22.03;21.23;;;22.70;93.00;;;;;;5033854;28;20500;-67
2023/05/11 06:01:52;;;;;;;22.60;21.80;;;22.80;93.20;;;;;;5033408;28;20480;-68
2023/05/11 06:04:20;;;;;;;22.90;22.00;;;22.80;93.00;;;;;;5033534;28;20540;-68
2023/05/11 06:06:47;;;;;;;23.57;22.77;;;22.80;93.00;;;;;;5033762;28;20681;-69
2023/05/11 06:09:14;;;;;;;23.87;22.77;;;22.80;93.10;;;;;;5033931;28;20441;-69
2023/05/11 06:11:41;;;;;;;24.50;23.47;;;22.80;93.10;;;;;;5034534;28;20477;-69
2023/05/11 06:14:08;;;;;;;24.23;23.23;;;22.80;93.00;;;;;;5032701;28;20480;-67
2023/05/11 06:16:35;;;;;;;25.33;24.43;;;22.90;93.00;;;;;;5033131;28;20476;-68
2023/05/11 06:19:01;;;;;;;24.13;23.03;;;22.90;92.80;;;;;;5033339;28;20524;-68
2023/05/11 06:21:30;;;;;;;24.27;23.37;;;22.90;92.80;;;;;;5032947;28;20480;-70
2023/05/11 06:23:57;;;;;;;21.30;20.50;;;22.90;92.50;;;;;;5031922;28;20890;-69
2023/05/11 06:26:24;;;;;;;24.73;23.93;;;23.00;92.80;;;;;;5033189;28;20238;-67
2023/05/11 06:28:51;;;;;;;25.70;24.70;;;23.10;92.00;;;;;;5033132;28;20536;-68
2023/05/11 06:31:18;;;;;;;24.40;23.40;;;23.20;91.80;;;;;;5032652;28;20444;-66
2023/05/11 06:33:46;;;;;;;23.97;23.10;;;23.20;91.60;;;;;;5037985;28;20443;-65
2023/05/11 06:36:13;;;;;;;24.30;23.40;;;23.10;91.70;;;;;;5052228;28;20445;-65
2023/05/11 06:38:41;;;;;;;24.50;23.60;;;23.10;92.00;;;;;;5052237;28;20510;-65
2023/05/11 06:41:10;;;;;;;24.40;23.50;;;23.00;91.70;;;;;;5052863;28;20468;-63
2023/05/11 06:43:37;;;;;;;26.10;24.70;;;23.00;91.80;;;;;;5051383;28;20445;-66
2023/05/11 06:46:04;;;;;;;21.23;20.23;;;23.00;92.20;;;;;;5051735;28;20463;-71
2023/05/11 06:48:31;;;;;;;23.43;22.03;;;23.10;92.00;;;;;;5051159;28;20468;-58
2023/05/11 06:50:58;;;;;;;29.47;27.87;;;23.20;91.70;;;;;;5051537;28;20815;-51
2023/05/11 06:53:25;;;;;;;29.37;27.97;;;23.30;91.70;;;;;;5050803;28;20452;-58
2023/05/11 06:55:54;;;;;;;28.93;27.60;;;23.40;91.50;;;;;;5051612;28;20484;-51
2023/05/11 06:58:22;;;;;;;28.83;27.53;;;23.40;91.50;;;;;;5052348;28;20487;-55
2023/05/11 07:00:48;;;;;;;27.80;26.30;;;23.40;91.60;;;;;;5055712;28;20440;-56
2023/05/11 07:03:15;;;;;;;24.65;23.38;;;23.30;91.70;;;;;;5054517;28;20482;-59
2023/05/11 07:05:42;;;;;;;26.97;25.70;;;23.40;91.80;;;;;;5055561;28;20212;-51
2023/05/11 07:08:09;;;;;;;26.30;25.10;;;23.40;91.50;;;;;;5055213;28;20505;-51
2023/05/11 07:10:36;;;;;;;28.97;27.37;;;23.50;91.20;;;;;;5055513;28;20475;-55
2023/05/11 07:13:05;;;;;;;23.50;22.40;;;23.50;91.10;;;;;;5054443;28;20515;-52
2023/05/11 07:15:32;;;;;;;25.00;23.80;;;23.50;91.10;;;;;;5036007;28;20452;-55
2023/05/11 07:18:00;;;;;;;27.47;26.07;;;23.50;90.60;;;;;;5035693;28;20317;-51
2023/05/11 07:20:27;;;;;;;33.70;32.00;;;23.50;90.60;;;;;;5035673;28;20489;-54
2023/05/11 07:22:57;;;;;;;28.80;27.20;;;23.50;90.70;;;;;;5035360;28;20445;-56
2023/05/11 07:25:25;;;;;;;31.97;29.93;;;23.50;90.80;;;;;;5036727;28;20448;-55
2023/05/11 07:27:51;;;;;;;31.70;29.80;;;23.50;91.00;;;;;;5035855;28;20465;-55
2023/05/11 07:30:21;;;;;;;31.27;29.67;;;23.50;91.30;;;;;;5036179;28;20479;-55
2023/05/11 07:32:48;;;;;;;30.63;28.93;;;23.50;91.40;;;;;;5035786;28;20528;-59
2023/05/11 07:35:15;;;;;;;29.70;28.00;;;23.50;91.50;;;;;;5050852;28;20480;-55
2023/05/11 07:37:42;;;;;;;29.33;27.73;;;23.50;91.80;;;;;;5055334;28;20472;-50
2023/05/11 07:40:10;;;;;;;29.17;27.33;;;23.50;91.80;;;;;;5055371;28;20491;-52
2023/05/11 07:42:36;;;;;;;26.80;25.10;;;23.50;91.30;;;;;;5054013;28;20440;-50
2023/05/11 07:45:04;;;;;;;29.27;27.40;;;23.50;91.40;;;;;;5055228;28;20574;-52
2023/05/11 07:47:32;;;;;;;28.47;27.07;;;23.70;91.00;;;;;;5055073;28;20496;-52
2023/05/11 07:49:59;;;;;;;29.83;28.17;;;23.70;90.40;;;;;;5054958;28;20479;-52
2023/05/11 07:52:26;;;;;;;29.40;27.70;;;23.70;90.20;;;;;;5049250;28;20453;-50
2023/05/11 07:54:53;;;;;;;27.70;26.30;;;23.70;90.10;;;;;;5035304;28;20449;-56
2023/05/11 07:57:20;;;;;;;27.37;26.07;;;23.70;90.00;;;;;;5035500;28;20527;-56
2023/05/11 07:59:47;;;;;;;27.90;26.53;;;23.70;89.90;;;;;;5035333;28;20527;-57
2023/05/11 08:02:14;;;;;;;26.87;25.57;;;23.60;90.00;;;;;;5035474;28;20968;-53
2023/05/11 08:04:42;;;;;;;27.60;26.10;;;23.60;90.00;;;;;;5034949;28;20899;-53
2023/05/11 08:07:09;;;;;;;28.80;27.30;;;23.50;90.00;;;;;;5035450;28;20472;-57
2023/05/11 08:09:36;;;;;;;27.90;26.40;;;23.50;90.10;;;;;;5034939;28;21113;-54
2023/05/11 08:12:03;;;;;;;26.50;25.10;;;23.40;90.30;;;;;;5035895;28;20448;-57
2023/05/11 08:14:31;;;;;;;27.43;26.20;;;23.40;90.50;;;;;;5054918;28;20543;-57
2023/05/11 08:16:58;;;;;;;27.27;26.00;;;23.40;91.00;;;;;;5055319;28;20444;-60
2023/05/11 08:19:25;;;;;;;28.40;27.00;;;23.50;90.80;;;;;;5055393;28;20542;-55
2023/05/11 08:21:53;;;;;;;28.00;26.70;;;23.50;90.80;;;;;;5055050;28;20468;-55
2023/05/11 08:24:20;;;;;;;28.63;27.13;;;23.60;90.50;;;;;;5054238;28;20472;-58
2023/05/11 08:26:47;;;;;;;27.87;26.07;;;23.60;90.30;;;;;;5054385;28;20484;-56
2023/05/11 08:29:14;;;;;;;27.30;25.90;;;23.60;90.40;;;;;;5054738;28;20934;-57
2023/05/11 08:31:41;;;;;;;27.07;25.97;;;23.60;90.50;;;;;;5055178;28;20468;-57
2023/05/11 08:34:08;;;;;;;29.40;27.70;;;23.60;90.30;;;;;;5036843;28;20988;-53
2023/05/11 08:36:35;;;;;;;27.10;25.90;;;23.60;90.60;;;;;;5034877;28;20510;-53
2023/05/11 08:39:05;;;;;;;28.40;27.10;;;23.70;90.20;;;;;;5034522;28;20484;-52
2023/05/11 08:41:32;;;;;;;28.13;26.93;;;23.60;90.10;;;;;;5034099;28;20441;-56
2023/05/11 08:44:00;;;;;;;27.60;26.40;;;23.60;90.00;;;;;;5033847;28;20453;-56
2023/05/11 08:46:30;;;;;;;28.80;27.40;;;23.60;90.50;;;;;;5034465;28;20536;-53
2023/05/11 08:48:58;;;;;;;27.47;26.20;;;23.60;90.10;;;;;;5034398;28;20465;-53
2023/05/11 08:51:25;;;;;;;27.37;26.10;;;23.60;90.10;;;;;;5034154;28;20448;-57
2023/05/11 08:53:52;;;;;;;26.90;25.80;;;23.60;89.80;;;;;;5034382;28;20472;-58
2023/05/11 08:56:22;;;;;;;27.07;25.77;;;23.60;89.80;;;;;;5034596;28;20505;-50
2023/05/11 08:58:51;;;;;;;27.13;25.93;;;23.60;89.80;;;;;;5034224;28;20481;-59
2023/05/11 09:01:19;;;;;;;26.53;25.33;;;23.60;89.80;;;;;;5034017;28;20526;-56
2023/05/11 09:03:47;;;;;;;26.50;25.40;;;23.70;89.70;;;;;;5034097;28;20499;-56
2023/05/11 09:06:16;;;;;;;27.03;25.93;;;23.70;89.30;;;;;;5034157;28;20445;-54
2023/05/11 09:08:44;;;;;;;28.67;27.47;;;23.80;89.00;;;;;;5034248;28;20480;-53
2023/05/11 09:11:11;;;;;;;26.13;24.93;;;23.80;88.60;;;;;;5033801;28;20445;-53
2023/05/11 09:13:40;;;;;;;26.67;25.30;;;23.90;88.40;;;;;;5033525;28;20456;-56
2023/05/11 09:16:07;;;;;;;27.60;26.40;;;23.90;88.10;;;;;;5033839;28;20880;-53
2023/05/11 09:18:34;;;;;;;27.20;26.00;;;23.90;87.90;;;;;;5033971;28;20521;-51
2023/05/11 09:21:01;;;;;;;27.40;26.20;;;24.00;88.30;;;;;;5033679;28;20477;-53
2023/05/11 09:23:28;;;;;;;26.73;25.53;;;23.90;87.80;;;;;;5032609;28;20442;-55
2023/05/11 09:25:55;;;;;;;26.27;25.17;;;23.90;87.60;;;;;;5033500;28;20491;-55
2023/05/11 09:28:24;;;;;;;26.10;24.90;;;23.90;87.60;;;;;;5033427;28;20473;-52
2023/05/11 09:30:53;;;;;;;28.23;27.03;;;24.00;87.40;;;;;;5033618;28;20450;-56
2023/05/11 09:33:24;;;;;;;27.10;25.90;;;24.00;88.60;;;;;;5033254;28;20452;-56
2023/05/11 09:35:51;;;;;;;27.40;26.10;;;24.00;87.50;;;;;;5033264;28;20974;-53
2023/05/11 09:38:19;;;;;;;26.70;25.70;;;24.00;87.30;;;;;;5033268;28;20548;-57
2023/05/11 09:40:53;;;;;;;27.47;26.27;;;24.00;87.30;;;;;;5046491;28;20510;-54
2023/05/11 09:43:22;;;;;;;26.43;25.33;;;24.00;87.40;;;;;;5052721;28;20471;-50
2023/05/11 09:45:50;;;;;;;26.93;25.90;;;24.00;86.90;;;;;;5053101;28;20866;-54
2023/05/11 09:48:30;;;;;;;26.33;25.23;;;24.10;86.70;;;;;;5053425;28;20479;-51
2023/05/11 09:51:03;;;;;;;26.50;25.47;;;24.00;86.70;;;;;;5052634;28;20505;-54
2023/05/11 09:53:39;;;;;;;26.67;25.57;;;24.00;86.60;;;;;;5052895;28;20498;-56
2023/05/11 09:56:07;;;;;;;25.87;24.87;;;24.00;86.40;;;;;;5052534;28;20447;-53
2023/05/11 09:58:48;;;;;;;26.30;25.30;;;24.10;86.50;;;;;;5052959;28;20903;-58
2023/05/11 10:01:15;;;;;;;26.60;25.40;;;24.00;86.30;;;;;;5036124;28;20445;-53
2023/05/11 10:03:53;;;;;;;27.13;25.97;;;24.10;86.70;;;;;;5032839;28;20492;-54
2023/05/11 10:06:20;;;;;;;27.10;26.00;;;24.10;86.10;;;;;;5032997;28;20531;-52
2023/05/11 10:08:47;;;;;;;26.40;25.30;;;24.10;85.90;;;;;;5032451;28;20512;-52
2023/05/11 10:11:14;;;;;;;27.10;26.00;;;24.10;86.00;;;;;;5049833;28;20492;-52
2023/05/11 10:13:43;;;;;;;26.70;25.60;;;24.10;85.90;;;;;;5052513;28;20874;-54
2023/05/11 10:16:11;;;;;;;27.33;26.13;;;24.10;85.70;;;;;;5052639;28;20472;-52
2023/05/11 10:18:39;;;;;;;27.27;26.20;;;24.10;86.00;;;;;;5052522;28;20496;-54
2023/05/11 10:21:08;;;;;;;26.43;25.30;;;24.10;85.90;;;;;;5052096;28;20455;-56
2023/05/11 10:23:36;;;;;;;25.30;24.30;;;24.10;85.80;;;;;;5052522;28;20478;-58
2023/05/11 10:26:04;;;;;;;25.87;24.87;;;24.10;85.60;;;;;;5052554;28;20894;-55
2023/05/11 10:28:31;;;;;;;26.30;25.30;;;24.10;85.20;;;;;;5052492;28;20496;-55
2023/05/11 10:31:00;;;;;;;25.83;24.63;;;24.10;85.10;;;;;;5051824;28;20470;-56
2023/05/11 10:33:27;;;;;;;26.97;25.77;;;24.10;85.40;;;;;;5051868;28;20472;-58
2023/05/11 10:35:55;;;;;;;25.10;24.20;;;24.10;85.70;;;;;;5052125;28;20447;-58
2023/05/11 10:38:25;;;;;;;24.83;23.47;;;24.00;84.70;;;;;;5050781;28;20472;-55
2023/05/11 10:40:54;;;;;;;23.13;22.23;;;24.00;85.10;;;;;;5051238;28;20564;-51
2023/05/11 10:43:42;;;;;;;24.57;23.57;;;24.20;84.90;;;;;;5051901;28;20479;-49
2023/05/11 10:46:24;;;;;;;23.93;22.87;;;24.10;84.90;;;;;;5051624;28;20448;-53
2023/05/11 10:49:25;;;;;;;24.37;23.30;;;24.20;84.60;;;;;;5051570;28;20817;-55
2023/05/11 10:52:34;;;;;;;24.30;23.30;;;24.20;84.40;;;;;;5046867;28;20488;-55
2023/05/11 10:55:15;;;;;;;26.63;25.53;;;24.20;84.50;;;;;;5039808;28;21301;-56
2023/05/11 10:57:57;;;;;;;25.50;24.50;;;24.20;84.10;;;;;;5051644;28;20491;-56
2023/05/11 11:01:06;;;;;;;25.80;24.60;;;24.20;84.00;;;;;;5052136;28;20580;-56
2023/05/11 11:03:33;;;;;;;27.07;25.90;;;24.20;84.70;;;;;;5037810;28;20535;-55
2023/05/11 11:06:00;;;;;;;26.20;25.10;;;24.20;86.00;;;;;;5051964;28;20505;-55
2023/05/11 11:08:28;;;;;;;26.57;25.37;;;24.20;84.90;;;;;;5051841;28;20541;-54
2023/05/11 11:10:57;;;;;;;24.70;23.70;;;24.20;85.00;;;;;;5051817;28;20984;-51
2023/05/11 11:13:24;;;;;;;26.30;25.17;;;24.20;84.70;;;;;;5051643;28;20484;-56
2023/05/11 11:16:10;;;;;;;26.27;25.20;;;24.20;84.90;;;;;;5051954;28;21000;-54
2023/05/11 11:18:37;;;;;;;25.37;24.20;;;24.20;84.20;;;;;;5051279;28;20503;-54
2023/05/11 11:21:05;;;;;;;27.47;26.13;;;24.20;84.00;;;;;;5051669;28;20480;-52
2023/05/11 11:23:47;;;;;;;24.08;22.98;;;24.20;84.00;;;;;;5051089;28;20501;-59
2023/05/11 11:26:18;;;;;;;26.10;25.03;;;24.10;83.30;;;;;;5051927;28;20308;-57
2023/05/11 11:29:07;;;;;;;26.60;25.40;;;24.20;84.30;;;;;;5051513;28;20463;-59
2023/05/11 11:31:36;;;;;;;25.17;24.07;;;24.20;84.30;;;;;;5051798;28;20479;-59
2023/05/11 11:34:37;;;;;;;26.30;25.20;;;24.20;84.30;;;;;;5051465;28;20447;-57
2023/05/11 11:37:07;;;;;;;26.03;24.67;;;24.10;84.30;;;;;;4970564;28;20494;-59
2023/05/11 11:39:49;;;;;;;25.30;24.20;;;24.10;83.80;;;;;;5036365;28;20480;-63
2023/05/11 11:42:18;;;;;;;25.93;24.83;;;24.10;85.40;;;;;;5052044;28;20455;-61
2023/05/11 11:44:47;;;;;;;21.95;21.05;;;24.10;85.30;;;;;;5051065;28;20475;-52
2023/05/11 11:47:15;;;;;;;25.00;24.00;;;24.10;84.30;;;;;;5050723;28;20217;-58
2023/05/11 11:49:43;;;;;;;26.10;24.90;;;24.20;84.00;;;;;;5035556;28;20440;-58
2023/05/11 11:52:27;;;;;;;25.23;24.23;;;24.20;83.00;;;;;;5035102;28;20975;-60
2023/05/11 11:54:55;;;;;;;25.83;24.80;;;24.20;83.10;;;;;;5035548;28;20449;-56
2023/05/11 11:57:51;;;;;;;26.33;25.03;;;24.10;83.50;;;;;;5053676;28;20467;-55
2023/05/11 12:00:21;;;;;;;25.73;24.40;;;24.10;84.00;;;;;;5008278;28;20483;-55
2023/05/11 12:02:48;;;;;;;25.27;23.70;;;24.10;83.80;;;;;;5054960;28;20847;-55
2023/05/11 12:05:17;;;;;;;26.07;24.87;;;24.10;83.80;;;;;;5053999;28;20563;-56
2023/05/11 12:07:46;;;;;;;24.67;23.43;;;24.00;83.90;;;;;;5035026;28;20483;-56
2023/05/11 12:10:14;;;;;;;26.77;25.47;;;23.90;84.10;;;;;;5035241;28;20441;-56
2023/05/11 12:12:45;;;;;;;25.40;24.10;;;23.90;83.90;;;;;;5034710;28;20449;-55
2023/05/11 12:15:24;;;;;;;24.97;23.97;;;24.00;84.80;;;;;;5034901;28;20869;-58
2023/05/11 12:17:52;;;;;;;23.80;22.80;;;24.10;84.50;;;;;;5055008;28;20467;-51
2023/05/11 12:20:20;;;;;;;24.07;23.10;;;24.10;84.90;;;;;;5054870;28;21067;-53
2023/05/11 12:22:48;;;;;;;25.57;24.47;;;24.10;84.30;;;;;;5054696;28;20443;-51
2023/05/11 12:25:16;;;;;;;23.73;22.77;;;24.10;84.90;;;;;;5054803;28;20455;-58
2023/05/11 12:27:47;;;;;;;25.43;24.33;;;24.10;84.60;;;;;;5034551;28;20465;-54
2023/05/11 12:30:21;;;;;;;22.23;21.13;;;24.20;85.00;;;;;;5033709;28;20859;-50
2023/05/11 12:32:49;;;;;;;23.87;22.73;;;24.10;85.50;;;;;;5034470;28;20203;-54
2023/05/11 12:35:23;;;;;;;25.20;23.90;;;24.20;85.20;;;;;;5034476;28;20494;-52
2023/05/11 12:37:51;;;;;;;25.60;24.40;;;24.20;84.70;;;;;;5035881;28;20482;-57
2023/05/11 12:40:19;;;;;;;24.03;22.83;;;24.20;84.60;;;;;;5034573;28;20487;-58